createdAt,value
2018-02-25T00:01:17.246Z,102541.81
2018-02-25T00:03:44.647Z,102537.14
2018-02-25T00:06:12.022Z,102535.84
2018-02-25T00:08:39.426Z,102536.00
2018-02-25T00:11:06.891Z,102534.48
2018-02-25T00:13:34.357Z,102532.56
2018-02-25T00:16:01.742Z,102531.21
2018-02-25T00:18:29.146Z,102532.06
2018-02-25T00:20:56.526Z,102531.86
2018-02-25T00:23:23.928Z,102538.44
2018-02-25T00:25:51.302Z,102535.78
2018-02-25T00:28:18.689Z,102547.63
2018-02-25T00:30:46.091Z,102544.10
2018-02-25T00:33:14.182Z,102549.27
2018-02-25T00:35:41.586Z,102549.72
2018-02-25T00:38:08.983Z,102545.39
2018-02-25T00:40:36.462Z,102543.13
2018-02-25T00:43:03.897Z,102552.16
2018-02-25T00:45:31.286Z,102554.42
2018-02-25T00:47:58.674Z,102561.55
2018-02-25T00:50:26.101Z,102556.20
2018-02-25T00:52:53.486Z,102561.11
2018-02-25T00:55:20.907Z,102559.73
2018-02-25T00:57:48.294Z,102555.37
2018-02-25T01:00:15.691Z,102545.63
2018-02-25T01:02:43.074Z,102551.66
2018-02-25T01:05:10.518Z,102552.98
2018-02-25T01:07:37.914Z,102553.22
2018-02-25T01:10:05.302Z,102553.97
2018-02-25T01:12:32.743Z,102557.06
2018-02-25T01:15:00.139Z,102553.46
2018-02-25T01:17:27.530Z,102555.55
2018-02-25T01:19:54.955Z,102546.95
2018-02-25T01:22:22.363Z,102553.41
2018-02-25T01:24:49.762Z,102555.32
2018-02-25T01:27:17.158Z,102564.84
2018-02-25T01:29:44.550Z,102558.81
2018-02-25T01:32:12.047Z,102550.55
2018-02-25T01:34:39.474Z,102552.28
2018-02-25T01:37:07.064Z,102547.41
2018-02-25T01:39:34.494Z,102549.89
2018-02-25T01:42:01.954Z,102553.77
2018-02-25T01:44:29.402Z,102552.47
2018-02-25T01:46:57.645Z,102553.77
2018-02-25T01:49:25.051Z,102554.38
2018-02-25T01:51:52.443Z,102555.42
2018-02-25T01:54:19.826Z,102557.92
2018-02-25T01:56:47.222Z,102552.83
2018-02-25T01:59:14.706Z,102549.38
2018-02-25T02:01:42.106Z,102552.23
2018-02-25T02:04:09.488Z,102548.83
2018-02-25T02:06:39.802Z,102548.69
2018-02-25T02:09:07.194Z,102558.28
2018-02-25T02:11:34.658Z,102553.41
2018-02-25T02:14:02.114Z,102555.67
2018-02-25T02:16:29.558Z,102556.45
2018-02-25T02:18:56.946Z,102552.30
2018-02-25T02:21:24.354Z,102558.90
2018-02-25T02:23:51.745Z,102562.36
2018-02-25T02:26:19.134Z,102551.61
2018-02-25T02:28:46.522Z,102550.48
2018-02-25T02:31:13.935Z,102550.05
2018-02-25T02:33:41.336Z,102550.20
2018-02-25T02:36:08.723Z,102555.23
2018-02-25T02:38:36.117Z,102554.44
2018-02-25T02:41:03.555Z,102553.70
2018-02-25T02:43:30.965Z,102544.85
2018-02-25T02:45:58.428Z,102554.21
2018-02-25T02:48:25.885Z,102553.23
2018-02-25T02:50:53.282Z,102548.19
2018-02-25T02:53:20.700Z,102551.10
2018-02-25T02:55:48.200Z,102550.27
2018-02-25T02:58:15.589Z,102551.10
2018-02-25T03:00:43.018Z,102559.88
2018-02-25T03:03:10.480Z,102554.66
2018-02-25T03:05:37.939Z,102557.72
2018-02-25T03:08:05.333Z,102563.41
2018-02-25T03:10:32.718Z,102557.20
2018-02-25T03:13:00.118Z,102565.37
2018-02-25T03:15:27.509Z,102555.16
2018-02-25T03:17:54.922Z,102563.25
2018-02-25T03:20:22.305Z,102559.72
2018-02-25T03:22:49.727Z,102566.83
2018-02-25T03:25:17.171Z,102566.09
2018-02-25T03:27:44.562Z,102572.26
2018-02-25T03:30:11.979Z,102568.72
2018-02-25T03:32:39.387Z,102574.59
2018-02-25T03:35:06.765Z,102568.87
2018-02-25T03:37:34.194Z,102571.80
2018-02-25T03:40:01.571Z,102569.66
2018-02-25T03:42:29.064Z,102579.88
2018-02-25T03:44:56.442Z,102579.81
2018-02-25T03:47:23.834Z,102579.78
2018-02-25T03:49:51.218Z,102575.32
2018-02-25T03:52:18.619Z,102575.17
2018-02-25T03:54:46.027Z,102576.70
2018-02-25T03:57:13.423Z,102578.62
2018-02-25T03:59:40.834Z,102574.70
2018-02-25T04:02:09.050Z,102577.58
2018-02-25T04:04:36.487Z,102578.58
2018-02-25T04:07:03.894Z,102575.51
2018-02-25T04:09:31.290Z,102572.90
2018-02-25T04:11:58.731Z,102571.44
2018-02-25T04:14:26.179Z,102570.07
2018-02-25T04:16:53.578Z,102573.39
2018-02-25T04:19:20.964Z,102569.62
2018-02-25T04:21:48.361Z,102566.98
2018-02-25T04:24:15.762Z,102567.14
2018-02-25T04:26:43.273Z,102566.05
2018-02-25T04:29:10.659Z,102562.83
2018-02-25T04:31:38.039Z,102568.73
2018-02-25T04:34:05.448Z,102572.72
2018-02-25T04:36:32.857Z,102567.75
2018-02-25T04:39:00.238Z,102565.34
2018-02-25T04:41:27.630Z,102570.31
2018-02-25T04:43:55.018Z,102568.32
2018-02-25T04:46:22.403Z,102569.02
2018-02-25T04:48:49.854Z,102560.80
2018-02-25T04:51:17.247Z,102566.02
2018-02-25T04:53:44.650Z,102566.53
2018-02-25T04:56:12.031Z,102564.67
2018-02-25T04:58:39.426Z,102557.38
2018-02-25T05:01:06.843Z,102557.50
2018-02-25T05:03:34.218Z,102558.17
2018-02-25T05:06:01.606Z,102560.48
2018-02-25T05:08:29.007Z,102564.41
2018-02-25T05:10:56.402Z,102564.50
2018-02-25T05:13:23.794Z,102568.90
2018-02-25T05:15:51.258Z,102567.61
2018-02-25T05:18:18.645Z,102571.28
2018-02-25T05:20:46.067Z,102571.81
2018-02-25T05:23:13.458Z,102577.50
2018-02-25T05:25:40.883Z,102581.06
2018-02-25T05:28:08.282Z,102574.27
2018-02-25T05:30:35.697Z,102576.42
2018-02-25T05:33:03.100Z,102586.30
2018-02-25T05:35:30.556Z,102585.70
2018-02-25T05:37:57.946Z,102591.73
2018-02-25T05:40:25.352Z,102588.65
2018-02-25T05:42:52.739Z,102595.63
2018-02-25T05:45:20.190Z,102599.93
2018-02-25T05:47:47.626Z,102600.96
2018-02-25T05:50:15.083Z,102595.13
2018-02-25T05:52:42.479Z,102600.53
2018-02-25T05:55:09.898Z,102601.69
2018-02-25T05:57:37.279Z,102605.67
2018-02-25T06:00:04.694Z,102598.71
2018-02-25T06:02:32.153Z,102595.81
2018-02-25T06:04:59.558Z,102596.06
2018-02-25T06:07:26.960Z,102598.44
2018-02-25T06:09:54.427Z,102598.25
2018-02-25T06:12:21.818Z,102606.09
2018-02-25T06:14:49.205Z,102607.19
2018-02-25T06:17:16.603Z,102609.57
2018-02-25T06:19:44.003Z,102614.69
2018-02-25T06:22:11.408Z,102607.36
2018-02-25T06:24:38.795Z,102607.88
2018-02-25T06:27:07.079Z,102608.11
2018-02-25T06:29:34.474Z,102610.72
2018-02-25T06:32:01.868Z,102605.02
2018-02-25T06:34:29.255Z,102603.44
2018-02-25T06:36:56.659Z,102605.11
2018-02-25T06:39:24.119Z,102606.31
2018-02-25T06:41:51.582Z,102593.78
2018-02-25T06:44:18.976Z,102597.50
2018-02-25T06:46:46.364Z,102608.88
2018-02-25T06:49:13.818Z,102602.83
2018-02-25T06:51:41.285Z,102598.36
2018-02-25T06:54:08.658Z,102594.04
2018-02-25T06:56:36.087Z,102600.17
2018-02-25T06:59:03.469Z,102593.88
2018-02-25T07:01:30.861Z,102600.83
2018-02-25T07:03:58.248Z,102605.44
2018-02-25T07:06:25.710Z,102605.80
2018-02-25T07:08:53.094Z,102605.94
2018-02-25T07:11:20.514Z,102618.81
2018-02-25T07:13:48.066Z,102610.32
2018-02-25T07:16:15.472Z,102614.36
2018-02-25T07:18:42.887Z,102612.58
2018-02-25T07:21:10.267Z,102602.80
2018-02-25T07:23:37.693Z,102601.05
2018-02-25T07:26:05.166Z,102599.23
2018-02-25T07:28:32.551Z,102600.63
2018-02-25T07:30:59.947Z,102601.61
2018-02-25T07:33:27.343Z,102607.73
2018-02-25T07:35:54.770Z,102602.86
2018-02-25T07:38:22.238Z,102596.50
2018-02-25T07:40:49.646Z,102596.84
2018-02-25T07:43:17.052Z,102604.28
2018-02-25T07:45:44.495Z,102603.37
2018-02-25T07:48:11.944Z,102599.00
2018-02-25T07:50:39.324Z,102600.46
2018-02-25T07:53:06.731Z,102603.61
2018-02-25T07:55:34.210Z,102609.33
2018-02-25T07:58:01.606Z,102612.47
2018-02-25T08:00:29.022Z,102623.38
2018-02-25T08:02:56.412Z,102617.13
2018-02-25T08:05:23.794Z,102621.76
2018-02-25T08:07:51.194Z,102622.52
2018-02-25T08:10:18.642Z,102621.31
2018-02-25T08:12:46.098Z,102621.16
2018-02-25T08:15:13.563Z,102621.88
2018-02-25T08:17:40.958Z,102621.84
2018-02-25T08:20:08.338Z,102618.99
2018-02-25T08:22:35.714Z,102623.95
2018-02-25T08:25:03.253Z,102619.59
2018-02-25T08:27:30.631Z,102620.06
2018-02-25T08:29:58.019Z,102620.32
2018-02-25T08:32:25.398Z,102619.74
2018-02-25T08:34:52.874Z,102614.89
2018-02-25T08:37:20.271Z,102623.44
2018-02-25T08:39:47.707Z,102615.20
2018-02-25T08:42:15.090Z,102616.55
2018-02-25T08:44:42.478Z,102618.77
2018-02-25T08:47:09.874Z,102614.55
2018-02-25T08:49:37.326Z,102613.88
2018-02-25T08:52:04.787Z,102623.56
2018-02-25T08:54:32.186Z,102621.05
2018-02-25T08:56:59.602Z,102615.69
2018-02-25T08:59:27.070Z,102618.23
2018-02-25T09:01:54.467Z,102620.61
2018-02-25T09:04:21.887Z,102618.31
2018-02-25T09:06:49.270Z,102622.95
2018-02-25T09:09:16.670Z,102625.64
2018-02-25T09:11:44.150Z,102625.33
2018-02-25T09:14:11.526Z,102621.21
2018-02-25T09:16:38.927Z,102627.39
2018-02-25T09:19:06.410Z,102624.61
2018-02-25T09:21:33.849Z,102618.08
2018-02-25T09:24:01.322Z,102621.47
2018-02-25T09:26:28.718Z,102623.19
2018-02-25T09:28:56.103Z,102622.55
2018-02-25T09:31:23.599Z,102623.25
2018-02-25T09:33:50.974Z,102623.13
2018-02-25T09:36:18.371Z,102618.90
2018-02-25T09:38:45.862Z,102625.25
2018-02-25T09:41:13.252Z,102622.58
2018-02-25T09:43:40.679Z,102621.27
2018-02-25T09:46:08.064Z,102618.00
2018-02-25T09:48:35.450Z,102622.36
2018-02-25T09:51:02.946Z,102624.62
2018-02-25T09:53:30.323Z,102617.74
2018-02-25T09:55:57.716Z,102619.91
2018-02-25T09:58:25.097Z,102622.05
2018-02-25T10:00:52.562Z,102610.73
2018-02-25T10:03:20.015Z,102616.50
2018-02-25T10:05:47.479Z,102617.81
2018-02-25T10:08:14.859Z,102621.58
2018-02-25T10:10:42.246Z,102613.37
2018-02-25T10:13:09.622Z,102609.52
2018-02-25T10:15:37.090Z,102613.03
2018-02-25T10:18:04.550Z,102611.59
2018-02-25T10:20:31.958Z,102604.05
2018-02-25T10:22:59.330Z,102605.41
2018-02-25T10:25:26.740Z,102598.82
2018-02-25T10:27:54.136Z,102603.86
2018-02-25T10:30:21.531Z,102599.11
2018-02-25T10:32:48.914Z,102597.55
2018-02-25T10:35:16.295Z,102596.35
2018-02-25T10:37:43.711Z,102590.82
2018-02-25T10:40:11.088Z,102585.55
2018-02-25T10:42:38.498Z,102578.27
2018-02-25T10:45:05.912Z,102577.24
2018-02-25T10:47:33.404Z,102563.68
2018-02-25T10:50:00.810Z,102569.02
2018-02-25T10:52:28.206Z,102572.24
2018-02-25T10:54:55.602Z,102564.73
2018-02-25T10:57:23.035Z,102564.81
2018-02-25T10:59:50.422Z,102564.69
2018-02-25T11:02:17.810Z,102559.69
2018-02-25T11:04:45.267Z,102560.20
2018-02-25T11:07:12.755Z,102553.09
2018-02-25T11:09:40.147Z,102549.25
2018-02-25T11:12:07.550Z,102540.31
2018-02-25T11:14:34.935Z,102545.05
2018-02-25T11:17:02.332Z,102540.35
2018-02-25T11:19:29.710Z,102537.41
2018-02-25T11:21:57.187Z,102539.46
2018-02-25T11:24:24.646Z,102529.25
2018-02-25T11:26:52.087Z,102520.38
2018-02-25T11:29:19.483Z,102529.55
2018-02-25T11:31:46.884Z,102524.69
2018-02-25T11:34:14.267Z,102528.42
2018-02-25T11:36:41.647Z,102524.41
2018-02-25T11:39:09.029Z,102516.45
2018-02-25T11:41:36.418Z,102522.27
2018-02-25T11:44:03.830Z,102518.72
2018-02-25T11:46:31.217Z,102510.76
2018-02-25T11:48:58.594Z,102504.67
2018-02-25T11:51:25.994Z,102505.07
2018-02-25T11:53:53.434Z,102511.36
2018-02-25T11:56:20.911Z,102512.60
2018-02-25T11:58:48.291Z,102503.92
2018-02-25T12:01:15.718Z,102499.99
2018-02-25T12:03:43.098Z,102503.38
2018-02-25T12:06:10.499Z,102500.87
2018-02-25T12:08:37.986Z,102507.90
2018-02-25T12:11:05.392Z,102497.41
2018-02-25T12:13:32.802Z,102514.69
2018-02-25T12:16:00.259Z,102504.12
2018-02-25T12:18:27.642Z,102500.32
2018-02-25T12:20:55.027Z,102496.95
2018-02-25T12:23:22.438Z,102495.50
2018-02-25T12:25:49.891Z,102491.84
2018-02-25T12:28:17.270Z,102487.39
2018-02-25T12:30:44.659Z,102490.89
2018-02-25T12:33:12.034Z,102493.31
2018-02-25T12:35:39.417Z,102492.02
2018-02-25T12:38:06.886Z,102492.23
2018-02-25T12:40:34.319Z,102493.20
2018-02-25T12:43:01.783Z,102482.75
2018-02-25T12:45:29.158Z,102475.65
2018-02-25T12:47:56.602Z,102475.45
2018-02-25T12:50:23.972Z,102473.84
2018-02-25T12:52:51.363Z,102467.95
2018-02-25T12:55:18.755Z,102465.22
2018-02-25T12:57:46.159Z,102467.27
2018-02-25T13:00:13.571Z,102465.59
2018-02-25T13:02:41.026Z,102466.08
2018-02-25T13:05:08.500Z,102462.59
2018-02-25T13:07:35.961Z,102462.95
2018-02-25T13:10:03.338Z,102457.64
2018-02-25T13:12:30.755Z,102464.48
2018-02-25T13:14:58.134Z,102457.09
2018-02-25T13:17:25.536Z,102457.90
2018-02-25T13:19:52.940Z,102449.95
2018-02-25T13:22:20.400Z,102452.39
2018-02-25T13:24:47.794Z,102455.45
2018-02-25T13:27:15.190Z,102452.41
2018-02-25T13:29:42.572Z,102456.55
2018-02-25T13:32:09.986Z,102451.63
2018-02-25T13:34:37.375Z,102456.06
2018-02-25T13:37:04.764Z,102442.62
2018-02-25T13:39:32.146Z,102438.98
2018-02-25T13:41:59.525Z,102438.17
2018-02-25T13:44:26.918Z,102441.69
2018-02-25T13:46:54.318Z,102438.50
2018-02-25T13:49:21.703Z,102436.69
2018-02-25T13:51:49.159Z,102431.16
2018-02-25T13:54:16.599Z,102430.32
2018-02-25T13:56:43.990Z,102426.09
2018-02-25T13:59:11.406Z,102424.19
2018-02-25T14:01:38.801Z,102423.00
2018-02-25T14:04:06.190Z,102423.24
2018-02-25T14:06:33.678Z,102420.05
2018-02-25T14:09:01.126Z,102416.82
2018-02-25T14:11:28.510Z,102420.50
2018-02-25T14:13:55.914Z,102415.28
2018-02-25T14:16:23.318Z,102405.62
2018-02-25T14:18:50.790Z,102405.44
2018-02-25T14:21:18.159Z,102413.84
2018-02-25T14:23:45.540Z,102407.32
2018-02-25T14:26:12.942Z,102412.52
2018-02-25T14:28:40.318Z,102404.42
2018-02-25T14:31:07.691Z,102407.83
2018-02-25T14:33:35.083Z,102405.47
2018-02-25T14:36:02.458Z,102401.52
2018-02-25T14:38:29.891Z,102405.38
2018-02-25T14:40:57.270Z,102400.85
2018-02-25T14:43:24.663Z,102405.97
2018-02-25T14:45:52.050Z,102401.98
2018-02-25T14:48:19.434Z,102405.55
2018-02-25T14:50:46.821Z,102400.90
2018-02-25T14:53:14.318Z,102396.02
2018-02-25T14:55:41.708Z,102407.12
2018-02-25T14:58:09.097Z,102400.54
2018-02-25T15:00:36.492Z,102395.58
2018-02-25T15:03:03.890Z,102397.20
2018-02-25T15:05:31.275Z,102400.67
2018-02-25T15:07:58.661Z,102402.41
2018-02-25T15:10:26.065Z,102395.40
2018-02-25T15:12:53.542Z,102396.32
2018-02-25T15:15:20.927Z,102394.10
2018-02-25T15:17:48.385Z,102396.02
2018-02-25T15:20:15.773Z,102397.67
2018-02-25T15:22:43.167Z,102398.00
2018-02-25T15:25:10.614Z,102398.23
2018-02-25T15:27:38.014Z,102399.81
2018-02-25T15:30:05.406Z,102391.80
2018-02-25T15:32:32.786Z,102392.37
2018-02-25T15:35:00.206Z,102387.59
2018-02-25T15:37:27.573Z,102384.58
2018-02-25T15:39:55.054Z,102381.13
2018-02-25T15:42:22.445Z,102385.92
2018-02-25T15:44:49.823Z,102373.14
2018-02-25T15:47:17.210Z,102380.30
2018-02-25T15:49:44.598Z,102379.58
2018-02-25T15:52:12.020Z,102374.74
2018-02-25T15:54:39.383Z,102379.28
2018-02-25T15:57:06.782Z,102377.92
2018-02-25T15:59:34.175Z,102375.51
2018-02-25T16:02:01.567Z,102371.27
2018-02-25T16:04:28.968Z,102375.25
2018-02-25T16:06:56.358Z,102371.47
2018-02-25T16:09:23.827Z,102368.01
2018-02-25T16:11:51.295Z,102376.73
2018-02-25T16:14:18.674Z,102372.84
2018-02-25T16:16:46.143Z,102380.38
2018-02-25T16:19:13.536Z,102382.84
2018-02-25T16:21:40.926Z,102383.63
2018-02-25T16:24:08.419Z,102377.20
2018-02-25T16:26:35.803Z,102381.59
2018-02-25T16:29:03.260Z,102388.30
2018-02-25T16:31:30.611Z,102387.13
2018-02-25T16:33:58.010Z,102384.62
2018-02-25T16:36:25.398Z,102381.66
2018-02-25T16:38:52.863Z,102389.00
2018-02-25T16:41:20.241Z,102388.05
2018-02-25T16:43:47.642Z,102384.25
2018-02-25T16:46:15.118Z,102387.00
2018-02-25T16:48:42.507Z,102388.52
2018-02-25T16:51:09.905Z,102392.80
2018-02-25T16:53:37.318Z,102399.91
2018-02-25T16:56:04.710Z,102400.91
2018-02-25T16:58:32.130Z,102397.36
2018-02-25T17:00:59.523Z,102392.53
2018-02-25T17:03:26.941Z,102395.30
2018-02-25T17:05:54.326Z,102396.50
2018-02-25T17:08:21.754Z,102393.77
2018-02-25T17:10:49.138Z,102393.63
2018-02-25T17:13:16.571Z,102403.98
2018-02-25T17:15:43.955Z,102407.27
2018-02-25T17:18:11.346Z,102409.32
2018-02-25T17:20:38.734Z,102409.37
2018-02-25T17:23:06.195Z,102413.52
2018-02-25T17:25:33.575Z,102423.22
2018-02-25T17:28:00.981Z,102423.67
2018-02-25T17:30:28.454Z,102411.20
2018-02-25T17:32:55.843Z,102412.87
2018-02-25T17:35:23.262Z,102418.81
2018-02-25T17:37:50.658Z,102416.59
2018-02-25T17:40:18.094Z,102426.72
2018-02-25T17:42:45.442Z,102416.20
2018-02-25T17:45:12.822Z,102420.01
2018-02-25T17:47:40.250Z,102414.28
2018-02-25T17:50:07.642Z,102414.45
2018-02-25T17:52:35.031Z,102407.34
2018-02-25T17:55:02.419Z,102417.63
2018-02-25T17:57:29.815Z,102424.14
2018-02-25T17:59:57.201Z,102421.08
2018-02-25T18:02:24.599Z,102415.30
2018-02-25T18:04:52.014Z,102414.22
2018-02-25T18:07:19.428Z,102413.66
2018-02-25T18:09:46.814Z,102408.80
2018-02-25T18:12:14.207Z,102409.56
2018-02-25T18:14:41.607Z,102414.97
2018-02-25T18:17:08.982Z,102409.50
2018-02-25T18:19:36.378Z,102406.17
2018-02-25T18:22:03.802Z,102405.63
2018-02-25T18:24:31.189Z,102401.86
2018-02-25T18:26:58.574Z,102403.09
2018-02-25T18:29:25.970Z,102405.36
2018-02-25T18:31:53.351Z,102401.48
2018-02-25T18:34:20.747Z,102406.52
2018-02-25T18:36:48.134Z,102408.44
2018-02-25T18:39:15.630Z,102419.75
2018-02-25T18:41:43.009Z,102415.83
2018-02-25T18:44:10.400Z,102420.66
2018-02-25T18:46:37.798Z,102419.87
2018-02-25T18:49:05.259Z,102421.05
2018-02-25T18:51:32.642Z,102413.52
2018-02-25T18:54:00.062Z,102417.98
2018-02-25T18:56:27.446Z,102418.11
2018-02-25T18:58:54.843Z,102414.91
2018-02-25T19:01:22.322Z,102424.62
2018-02-25T19:03:49.719Z,102421.72
2018-02-25T19:06:17.102Z,102413.97
2018-02-25T19:08:44.500Z,102417.59
2018-02-25T19:11:11.879Z,102422.86
2018-02-25T19:13:39.298Z,102423.22
2018-02-25T19:16:06.682Z,102425.06
2018-02-25T19:18:34.078Z,102411.50
2018-02-25T19:21:01.483Z,102425.42
2018-02-25T19:23:28.904Z,102430.34
2018-02-25T19:25:56.294Z,102427.06
2018-02-25T19:28:23.702Z,102427.57
2018-02-25T19:30:51.099Z,102431.69
2018-02-25T19:33:18.490Z,102434.02
2018-02-25T19:35:51.647Z,102430.10
2018-02-25T19:38:24.651Z,102433.86
2018-02-25T19:40:57.653Z,102431.39
2018-02-25T19:43:25.050Z,102427.10
2018-02-25T19:45:52.510Z,102435.77
2018-02-25T19:48:19.973Z,102434.84
2018-02-25T19:50:47.360Z,102434.90
2018-02-25T19:53:14.747Z,102433.00
2018-02-25T19:55:42.158Z,102436.44
2018-02-25T19:58:09.548Z,102439.14
2018-02-25T20:00:36.953Z,102430.84
2018-02-25T20:03:04.347Z,102436.69
2018-02-25T20:05:31.740Z,102436.13
2018-02-25T20:07:59.159Z,102440.75
2018-02-25T20:10:26.564Z,102440.63
2018-02-25T20:12:53.970Z,102447.16
2018-02-25T20:15:21.362Z,102443.27
2018-02-25T20:17:48.751Z,102445.12
2018-02-25T20:20:16.134Z,102443.38
2018-02-25T20:22:43.599Z,102442.83
2018-02-25T20:25:10.990Z,102451.08
2018-02-25T20:27:38.374Z,102441.97
2018-02-25T20:30:05.832Z,102445.99
2018-02-25T20:32:33.206Z,102437.91
2018-02-25T20:35:00.655Z,102437.48
2018-02-25T20:37:28.134Z,102442.52
2018-02-25T20:39:55.520Z,102439.83
2018-02-25T20:42:22.970Z,102441.67
2018-02-25T20:44:50.387Z,102434.78
2018-02-25T20:47:17.787Z,102433.06
2018-02-25T20:49:45.170Z,102432.56
2018-02-25T20:52:12.565Z,102430.42
2018-02-25T20:54:39.942Z,102434.09
2018-02-25T20:57:07.338Z,102435.50
2018-02-25T20:59:34.736Z,102434.08
2018-02-25T21:02:02.149Z,102431.19
2018-02-25T21:04:29.533Z,102429.94
2018-02-25T21:06:56.949Z,102432.19
2018-02-25T21:09:24.343Z,102430.34
2018-02-25T21:11:51.742Z,102427.25
2018-02-25T21:14:19.123Z,102426.27
2018-02-25T21:16:46.514Z,102432.85
2018-02-25T21:19:13.901Z,102432.85
2018-02-25T21:21:41.307Z,102432.36
2018-02-25T21:24:08.695Z,102431.14
2018-02-25T21:26:36.130Z,102434.92
2018-02-25T21:29:03.585Z,102429.42
2018-02-25T21:31:30.969Z,102432.36
2018-02-25T21:33:58.362Z,102439.09
2018-02-25T21:36:25.852Z,102440.19
2018-02-25T21:38:53.292Z,102442.26
2018-02-25T21:41:20.692Z,102440.19
2018-02-25T21:43:48.082Z,102438.66
2018-02-25T21:46:15.467Z,102438.02
2018-02-25T21:48:42.862Z,102440.56
2018-02-25T21:51:10.277Z,102434.02
2018-02-25T21:53:41.690Z,102432.95
2018-02-25T21:56:14.714Z,102435.25
2018-02-25T21:58:47.807Z,102441.45
2018-02-25T22:01:20.978Z,102437.98
2018-02-25T22:03:48.371Z,102432.53
2018-02-25T22:06:15.759Z,102433.55
2018-02-25T22:08:43.157Z,102435.55
2018-02-25T22:11:10.542Z,102436.59
2018-02-25T22:13:37.943Z,102440.37
2018-02-25T22:16:05.339Z,102432.36
2018-02-25T22:18:32.746Z,102432.30
2018-02-25T22:21:00.130Z,102434.87
2018-02-25T22:23:27.534Z,102429.63
2018-02-25T22:25:54.918Z,102428.84
2018-02-25T22:28:22.342Z,102425.98
2018-02-25T22:30:49.730Z,102429.48
2018-02-25T22:33:17.145Z,102432.35
2018-02-25T22:35:44.610Z,102431.96
2018-02-25T22:38:11.994Z,102433.69
2018-02-25T22:40:39.389Z,102430.13
2018-02-25T22:43:06.778Z,102436.44
2018-02-25T22:45:34.178Z,102431.55
2018-02-25T22:48:01.574Z,102426.89
2018-02-25T22:50:29.039Z,102422.55
2018-02-25T22:52:56.525Z,102429.89
2018-02-25T22:55:23.952Z,102425.92
2018-02-25T22:57:51.336Z,102428.08
2018-02-25T23:00:22.134Z,102432.23
2018-02-25T23:02:49.478Z,102433.16
2018-02-25T23:05:16.871Z,102427.73
2018-02-25T23:07:44.320Z,102431.47
2018-02-25T23:10:11.723Z,102432.15
2018-02-25T23:12:39.205Z,102432.30
2018-02-25T23:15:06.695Z,102436.87
2018-02-25T23:17:34.130Z,102432.45
2018-02-25T23:20:01.534Z,102431.00
2018-02-25T23:22:28.922Z,102431.72
2018-02-25T23:24:56.346Z,102424.93
2018-02-25T23:27:23.747Z,102424.08
2018-02-25T23:29:51.126Z,102420.83
2018-02-25T23:32:18.550Z,102421.07
2018-02-25T23:34:45.942Z,102427.31
2018-02-25T23:37:13.348Z,102428.73
2018-02-25T23:39:40.748Z,102423.77
2018-02-25T23:42:08.179Z,102434.16
2018-02-25T23:44:35.566Z,102432.12
2018-02-25T23:47:03.808Z,102429.70
2018-02-25T23:49:31.258Z,102430.33
2018-02-25T23:51:58.666Z,102425.93
2018-02-25T23:54:26.171Z,102422.14
2018-02-25T23:56:53.574Z,102426.50
2018-02-25T23:59:20.982Z,102428.65
